Stena Europe — VSTA3 — position and weather

sailwx.info

Track history (hours):
 
Tides and Currents Weather Stations Pressure Air Temp Water Temp Dewpoint Dewpoint Depression Visibility Wind Speed Wind Dir Waves Ship Positions

Stena Europe

Operator: Stena Line

Last reported at 2020-Mar-27 17:00 UTC. Time now 2020-Apr-02 21:21 UTC.
Position N 52°15' W 006°20'.

Length 149 m; draft 6 m.

Type: Passenger vessel. MMSI: 235004539.

Date/timePositionNaut miles runAvg speedWind from/ knotsBaromVisibWave heightAir tempDewpointWater temp
2020-Mar-27 17:00N 52°15' W 006°20'0 0.0
2020-Mar-27 16:30N 52°15' W 006°20'3 5.3
2020-Mar-27 16:00N 52°14' W 006°16'3 0.1
2020-Mar-26 17:22N 52°15' W 006°20'4611.9
2020-Mar-26 13:29N 52°04' W 005°07'6 2.5
2020-Mar-26 10:56N 52°01' W 004°58'1817.0
2020-Mar-26 09:52N 52°07' W 005°26'617.7
2020-Mar-26 09:30N 52°08' W 005°36'2617.2
2020-Mar-26 08:01N 52°15' W 006°16'2 4.8
2020-Mar-26 07:30N 52°15' W 006°20'0 0.0
2020-Mar-26 07:00N 52°15' W 006°20'0 0.0
2020-Mar-26 06:30N 52°15' W 006°20'0 0.0
2020-Mar-26 06:00N 52°15' W 006°20'0 0.0
2020-Mar-26 05:30N 52°15' W 006°20'0 0.0
2020-Mar-26 04:30N 52°15' W 006°20'5 4.5
2020-Mar-26 03:30N 52°14' W 006°13'36 5.1
2020-Mar-25 20:23N 52°05' W 005°16'31 6.3
2020-Mar-25 15:31N 52°13' W 006°05'35 6.9
2020-Mar-25 10:26N 52°04' W 005°09'3517.9
2020-Mar-25 08:30N 52°13' W 006°04'917.4
2020-Mar-25 08:00N 52°15' W 006°18'2 0.7
2020-Mar-25 05:30N 52°15' W 006°20'32 7.9
2020-Mar-25 01:30N 52°07' W 005°30'713.7
2020-Mar-25 01:00N 52°06' W 005°19'713.8
2020-Mar-25 00:30N 52°04' W 005°08'4 1.3
2020-Mar-24 21:20N 52°05' W 005°15'2317.4
2020-Mar-24 20:00N 52°11' W 005°51'816.6
2020-Mar-24 19:30N 52°13' W 006°04'816.3
2020-Mar-24 19:00N 52°15' W 006°17'2 1.3
2020-Mar-24 17:30N 52°15' W 006°20'0 0.0
2020-Mar-24 17:01N 52°15' W 006°20'14 9.6
2020-Mar-24 15:30N 52°12' W 005°57'4 0.6
2020-Mar-24 08:30N 52°13' W 006°04'816.8
2020-Mar-24 08:00N 52°15' W 006°18'2 3.2
2020-Mar-24 07:30N 52°15' W 006°20'0 0.0
2020-Mar-24 05:30N 52°15' W 006°20'0 0.0
2020-Mar-24 04:30N 52°15' W 006°20'20 2.2
2020-Mar-23 19:16N 52°09' W 005°50'10 0.4
2020-Mar-22 19:36N 52°07' W 005°33'217.8
2020-Mar-22 19:30N 52°08' W 005°36'1717.5
2020-Mar-22 18:30N 52°12' W 006°03'1110.9
2020-Mar-22 17:30N 52°15' W 006°20'0 0.1
2020-Mar-22 16:00N 52°15' W 006°21'9 1.3
2020-Mar-22 08:31N 52°13' W 006°06'9 3.7
2020-Mar-22 06:00N 52°15' W 006°20'0 0.0
2020-Mar-22 05:00N 52°15' W 006°20'3 2.2
2020-Mar-22 03:30N 52°14' W 006°15'1414.1
2020-Mar-22 02:31N 52°11' W 005°53'9 1.4
2020-Mar-21 20:02N 52°09' W 005°38'917.3
2020-Mar-21 19:30N 52°11' W 005°52'1811.8
2020-Mar-21 18:00N 52°15' W 006°20'0 0.0
2020-Mar-21 17:30N 52°15' W 006°20'1 1.1
2020-Mar-21 16:30N 52°16' W 006°19'11 0.8
2020-Mar-21 03:00N 52°18' W 006°01'612.5
2020-Mar-21 02:30N 52°16' W 005°50'6 0.2
2020-Mar-19 20:00N 52°11' W 005°57'816.1
2020-Mar-19 19:30N 52°13' W 006°10'7 6.9
2020-Mar-19 18:30N 52°15' W 006°20'2 0.9
2020-Mar-19 16:30N 52°15' W 006°17'20 2.7
2020-Mar-19 09:16N 52°10' W 005°46'1216.1
2020-Mar-19 08:30N 52°13' W 006°06'9 4.6
2020-Mar-19 06:30N 52°15' W 006°20'0 0.0
2020-Mar-19 05:30N 52°15' W 006°20'0 0.0
2020-Mar-19 05:00N 52°15' W 006°20'0 0.0
2020-Mar-19 04:30N 52°15' W 006°20'4 4.2
2020-Mar-19 03:31N 52°14' W 006°14'1414.0
2020-Mar-19 02:30N 52°11' W 005°52'8 0.5
2020-Mar-18 09:22N 52°07' W 005°40'616.4
2020-Mar-18 09:00N 52°10' W 005°48'816.5
2020-Mar-18 08:30N 52°12' W 006°01'10 2.0
2020-Mar-18 03:30N 52°15' W 006°17'1515.3
2020-Mar-18 02:30N 52°11' W 005°53'612.0
2020-Mar-18 02:00N 52°10' W 005°43'23 2.9
2020-Mar-17 18:00N 52°15' W 006°20'  
Track history (hours):
 
Tides and Currents Weather Stations Pressure Air Temp Water Temp Dewpoint Dewpoint Depression Visibility Wind Speed Wind Dir Waves Ship Positions

Stena Europe

Operator: Stena Line

Last reported at 2020-Mar-27 17:00 UTC. Time now 2020-Apr-02 21:21 UTC.
Position N 52°15' W 006°20'.

Length 149 m; draft 6 m.

Type: Passenger vessel. MMSI: 235004539.

Date/timePositionNaut miles runAvg speedWind from/ knotsBaromVisibWave heightAir tempDewpointWater temp
2020-Mar-27 17:00N 52°15' W 006°20'0 0.0
2020-Mar-27 16:30N 52°15' W 006°20'3 5.3
2020-Mar-27 16:00N 52°14' W 006°16'3 0.1
2020-Mar-26 17:22N 52°15' W 006°20'4611.9
2020-Mar-26 13:29N 52°04' W 005°07'6 2.5
2020-Mar-26 10:56N 52°01' W 004°58'1817.0
2020-Mar-26 09:52N 52°07' W 005°26'617.7
2020-Mar-26 09:30N 52°08' W 005°36'2617.2
2020-Mar-26 08:01N 52°15' W 006°16'2 4.8
2020-Mar-26 07:30N 52°15' W 006°20'0 0.0
2020-Mar-26 07:00N 52°15' W 006°20'0 0.0
2020-Mar-26 06:30N 52°15' W 006°20'0 0.0
2020-Mar-26 06:00N 52°15' W 006°20'0 0.0
2020-Mar-26 05:30N 52°15' W 006°20'0 0.0
2020-Mar-26 04:30N 52°15' W 006°20'5 4.5
2020-Mar-26 03:30N 52°14' W 006°13'36 5.1
2020-Mar-25 20:23N 52°05' W 005°16'31 6.3
2020-Mar-25 15:31N 52°13' W 006°05'35 6.9
2020-Mar-25 10:26N 52°04' W 005°09'3517.9
2020-Mar-25 08:30N 52°13' W 006°04'917.4
2020-Mar-25 08:00N 52°15' W 006°18'2 0.7
2020-Mar-25 05:30N 52°15' W 006°20'32 7.9
2020-Mar-25 01:30N 52°07' W 005°30'713.7
2020-Mar-25 01:00N 52°06' W 005°19'713.8
2020-Mar-25 00:30N 52°04' W 005°08'4 1.3
2020-Mar-24 21:20N 52°05' W 005°15'2317.4
2020-Mar-24 20:00N 52°11' W 005°51'816.6
2020-Mar-24 19:30N 52°13' W 006°04'816.3
2020-Mar-24 19:00N 52°15' W 006°17'2 1.3
2020-Mar-24 17:30N 52°15' W 006°20'0 0.0
2020-Mar-24 17:01N 52°15' W 006°20'14 9.6
2020-Mar-24 15:30N 52°12' W 005°57'4 0.6
2020-Mar-24 08:30N 52°13' W 006°04'816.8
2020-Mar-24 08:00N 52°15' W 006°18'2 3.2
2020-Mar-24 07:30N 52°15' W 006°20'0 0.0
2020-Mar-24 05:30N 52°15' W 006°20'0 0.0
2020-Mar-24 04:30N 52°15' W 006°20'20 2.2
2020-Mar-23 19:16N 52°09' W 005°50'10 0.4
2020-Mar-22 19:36N 52°07' W 005°33'217.8
2020-Mar-22 19:30N 52°08' W 005°36'1717.5
2020-Mar-22 18:30N 52°12' W 006°03'1110.9
2020-Mar-22 17:30N 52°15' W 006°20'0 0.1
2020-Mar-22 16:00N 52°15' W 006°21'9 1.3
2020-Mar-22 08:31N 52°13' W 006°06'9 3.7
2020-Mar-22 06:00N 52°15' W 006°20'0 0.0
2020-Mar-22 05:00N 52°15' W 006°20'3 2.2
2020-Mar-22 03:30N 52°14' W 006°15'1414.1
2020-Mar-22 02:31N 52°11' W 005°53'9 1.4
2020-Mar-21 20:02N 52°09' W 005°38'917.3
2020-Mar-21 19:30N 52°11' W 005°52'1811.8
2020-Mar-21 18:00N 52°15' W 006°20'0 0.0
2020-Mar-21 17:30N 52°15' W 006°20'1 1.1
2020-Mar-21 16:30N 52°16' W 006°19'11 0.8
2020-Mar-21 03:00N 52°18' W 006°01'612.5
2020-Mar-21 02:30N 52°16' W 005°50'6 0.2
2020-Mar-19 20:00N 52°11' W 005°57'816.1
2020-Mar-19 19:30N 52°13' W 006°10'7 6.9
2020-Mar-19 18:30N 52°15' W 006°20'2 0.9
2020-Mar-19 16:30N 52°15' W 006°17'20 2.7
2020-Mar-19 09:16N 52°10' W 005°46'1216.1
2020-Mar-19 08:30N 52°13' W 006°06'9 4.6
2020-Mar-19 06:30N 52°15' W 006°20'0 0.0
2020-Mar-19 05:30N 52°15' W 006°20'0 0.0
2020-Mar-19 05:00N 52°15' W 006°20'0 0.0
2020-Mar-19 04:30N 52°15' W 006°20'4 4.2
2020-Mar-19 03:31N 52°14' W 006°14'1414.0
2020-Mar-19 02:30N 52°11' W 005°52'8 0.5
2020-Mar-18 09:22N 52°07' W 005°40'616.4
2020-Mar-18 09:00N 52°10' W 005°48'816.5
2020-Mar-18 08:30N 52°12' W 006°01'10 2.0
2020-Mar-18 03:30N 52°15' W 006°17'1515.3
2020-Mar-18 02:30N 52°11' W 005°53'612.0
2020-Mar-18 02:00N 52°10' W 005°43'23 2.9
2020-Mar-17 18:00N 52°15' W 006°20'  

Dump ship's entire track history